sensor_id;sensor_type;location;lat;lon;timestamp;pressure;altitude;pressure_sealevel;temperature;humidity
60055;BME280;45930;53.514;55.904;2023-01-31T00:00:37;49621.25;;;-149.77;54.39
60055;BME280;45930;53.514;55.904;2023-01-31T00:01:39;49613.31;;;-149.77;54.40
60055;BME280;45930;53.514;55.904;2023-01-31T00:02:40;49619.25;;;-149.77;54.38
60055;BME280;45930;53.514;55.904;2023-01-31T00:03:41;49611.34;;;-149.77;54.17
60055;BME280;45930;53.514;55.904;2023-01-31T00:04:42;49605.38;;;-149.77;54.43
60055;BME280;45930;53.514;55.904;2023-01-31T00:05:43;49643.03;;;-149.77;54.43
60055;BME280;45930;53.514;55.904;2023-01-31T00:06:44;49647.00;;;-149.77;54.31
60055;BME280;45930;53.514;55.904;2023-01-31T00:07:50;49627.19;;;-149.77;54.44
60055;BME280;45930;53.514;55.904;2023-01-31T00:08:52;49615.28;;;-149.77;54.22
60055;BME280;45930;53.514;55.904;2023-01-31T00:09:53;49631.16;;;-149.77;53.98
60055;BME280;45930;53.514;55.904;2023-01-31T00:10:57;49623.22;;;-149.77;54.11
60055;BME280;45930;53.514;55.904;2023-01-31T00:11:58;49627.19;;;-149.77;54.46
60055;BME280;45930;53.514;55.904;2023-01-31T00:12:59;49603.41;;;-149.77;54.51
60055;BME280;45930;53.514;55.904;2023-01-31T00:14:00;49637.09;;;-149.77;54.25
60055;BME280;45930;53.514;55.904;2023-01-31T00:15:02;49635.09;;;-149.77;54.24
60055;BME280;45930;53.514;55.904;2023-01-31T00:16:04;49635.09;;;-149.77;54.30
60055;BME280;45930;53.514;55.904;2023-01-31T00:17:07;49611.34;;;-149.77;54.24
60055;BME280;45930;53.514;55.904;2023-01-31T00:18:08;49609.34;;;-149.77;54.32
60055;BME280;45930;53.514;55.904;2023-01-31T00:19:09;49650.94;;;-149.77;54.36
60055;BME280;45930;53.514;55.904;2023-01-31T00:20:10;49643.03;;;-149.77;54.07
60055;BME280;45930;53.514;55.904;2023-01-31T00:21:16;49641.06;;;-149.77;54.04
60055;BME280;45930;53.514;55.904;2023-01-31T00:22:17;49583.59;;;-149.77;53.97
60055;BME280;45930;53.514;55.904;2023-01-31T00:23:18;49635.09;;;-149.77;53.86
60055;BME280;45930;53.514;55.904;2023-01-31T00:24:19;49607.38;;;-149.77;54.11
60055;BME280;45930;53.514;55.904;2023-01-31T00:25:19;49623.22;;;-149.77;54.04
60055;BME280;45930;53.514;55.904;2023-01-31T00:26:29;49599.44;;;-149.77;53.59
60055;BME280;45930;53.514;55.904;2023-01-31T00:27:30;49603.41;;;-149.77;53.92
60055;BME280;45930;53.514;55.904;2023-01-31T00:28:30;49607.38;;;-149.77;53.58
60055;BME280;45930;53.514;55.904;2023-01-31T00:29:31;49607.38;;;-149.77;53.88
60055;BME280;45930;53.514;55.904;2023-01-31T00:30:32;49627.19;;;-149.77;53.94
60055;BME280;45930;53.514;55.904;2023-01-31T00:31:33;49633.13;;;-149.77;53.96
60055;BME280;45930;53.514;55.904;2023-01-31T00:32:34;49621.25;;;-149.77;53.62
60055;BME280;45930;53.514;55.904;2023-01-31T00:33:36;49627.19;;;-149.77;53.87
60055;BME280;45930;53.514;55.904;2023-01-31T00:34:37;49605.38;;;-149.77;53.58
60055;BME280;45930;53.514;55.904;2023-01-31T00:35:38;49615.28;;;-149.77;53.94
60055;BME280;45930;53.514;55.904;2023-01-31T00:36:40;49621.25;;;-149.77;53.94
60055;BME280;45930;53.514;55.904;2023-01-31T00:37:40;49621.25;;;-149.77;53.67
60055;BME280;45930;53.514;55.904;2023-01-31T00:38:41;49605.38;;;-149.77;53.82
60055;BME280;45930;53.514;55.904;2023-01-31T00:39:44;49599.44;;;-149.77;54.06
60055;BME280;45930;53.514;55.904;2023-01-31T00:40:54;49635.09;;;-149.77;53.93
60055;BME280;45930;53.514;55.904;2023-01-31T00:41:54;49631.16;;;-149.77;53.97
60055;BME280;45930;53.514;55.904;2023-01-31T00:42:55;49654.91;;;-149.77;54.05
60055;BME280;45930;53.514;55.904;2023-01-31T00:43:57;49627.19;;;-149.77;53.95
60055;BME280;45930;53.514;55.904;2023-01-31T00:44:57;49599.44;;;-149.77;53.94
60055;BME280;45930;53.514;55.904;2023-01-31T00:45:58;49623.22;;;-149.77;53.82
60055;BME280;45930;53.514;55.904;2023-01-31T00:46:59;49603.41;;;-149.77;53.85
60055;BME280;45930;53.514;55.904;2023-01-31T00:48:00;49637.09;;;-149.77;53.67
60055;BME280;45930;53.514;55.904;2023-01-31T00:49:01;49629.16;;;-149.77;53.56
60055;BME280;45930;53.514;55.904;2023-01-31T00:50:03;49625.19;;;-149.77;53.84
60055;BME280;45930;53.514;55.904;2023-01-31T00:51:04;49623.22;;;-149.77;53.66
60055;BME280;45930;53.514;55.904;2023-01-31T00:52:05;49645.00;;;-149.77;53.64
60055;BME280;45930;53.514;55.904;2023-01-31T00:53:07;49627.19;;;-149.77;53.77
60055;BME280;45930;53.514;55.904;2023-01-31T00:54:08;49652.94;;;-149.77;53.49
60055;BME280;45930;53.514;55.904;2023-01-31T00:55:08;49619.25;;;-149.77;53.95
60055;BME280;45930;53.514;55.904;2023-01-31T00:56:18;49637.09;;;-149.77;53.94
60055;BME280;45930;53.514;55.904;2023-01-31T00:57:19;49656.91;;;-149.77;53.92
60055;BME280;45930;53.514;55.904;2023-01-31T00:58:21;49613.31;;;-149.77;53.54
60055;BME280;45930;53.514;55.904;2023-01-31T00:59:22;49623.22;;;-149.77;53.76
60055;BME280;45930;53.514;55.904;2023-01-31T01:00:22;49611.34;;;-149.77;53.45
60055;BME280;45930;53.514;55.904;2023-01-31T01:01:26;49613.31;;;-149.77;53.69
60055;BME280;45930;53.514;55.904;2023-01-31T01:02:27;49615.28;;;-149.77;53.43
60055;BME280;45930;53.514;55.904;2023-01-31T01:03:28;49654.91;;;-149.77;53.62
60055;BME280;45930;53.514;55.904;2023-01-31T01:04:28;49619.25;;;-149.77;53.40
60055;BME280;45930;53.514;55.904;2023-01-31T01:05:29;49645.00;;;-149.77;53.25
60055;BME280;45930;53.514;55.904;2023-01-31T01:06:30;49635.09;;;-149.77;53.79
60055;BME280;45930;53.514;55.904;2023-01-31T01:07:31;49660.84;;;-149.77;53.61
60055;BME280;45930;53.514;55.904;2023-01-31T01:08:32;49625.19;;;-149.77;53.90
60055;BME280;45930;53.514;55.904;2023-01-31T01:09:33;49627.19;;;-149.77;53.70
60055;BME280;45930;53.514;55.904;2023-01-31T01:10:34;49627.19;;;-149.77;53.77
60055;BME280;45930;53.514;55.904;2023-01-31T01:11:35;49658.88;;;-149.77;53.84
60055;BME280;45930;53.514;55.904;2023-01-31T01:12:36;49617.28;;;-149.77;53.79
60055;BME280;45930;53.514;55.904;2023-01-31T01:13:36;49627.19;;;-149.77;54.00
60055;BME280;45930;53.514;55.904;2023-01-31T01:14:37;49629.16;;;-149.77;54.02
60055;BME280;45930;53.514;55.904;2023-01-31T01:15:38;49678.69;;;-149.77;53.86
60055;BME280;45930;53.514;55.904;2023-01-31T01:16:39;49631.16;;;-149.77;54.08
60055;BME280;45930;53.514;55.904;2023-01-31T01:17:41;49615.28;;;-149.77;53.65
60055;BME280;45930;53.514;55.904;2023-01-31T01:18:42;49643.03;;;-149.77;54.30
60055;BME280;45930;53.514;55.904;2023-01-31T01:19:45;49615.28;;;-149.77;53.96
60055;BME280;45930;53.514;55.904;2023-01-31T01:20:46;49647.00;;;-149.77;53.77
60055;BME280;45930;53.514;55.904;2023-01-31T01:21:47;49621.25;;;-149.77;53.89
60055;BME280;45930;53.514;55.904;2023-01-31T01:22:48;49623.22;;;-149.77;54.12
60055;BME280;45930;53.514;55.904;2023-01-31T01:23:49;49648.97;;;-149.77;54.26
60055;BME280;45930;53.514;55.904;2023-01-31T01:24:49;49627.19;;;-149.77;54.13
60055;BME280;45930;53.514;55.904;2023-01-31T01:25:50;49631.16;;;-149.77;53.79
60055;BME280;45930;53.514;55.904;2023-01-31T01:26:51;49619.25;;;-149.77;53.87
60055;BME280;45930;53.514;55.904;2023-01-31T01:27:52;49631.16;;;-149.77;53.67
60055;BME280;45930;53.514;55.904;2023-01-31T01:28:54;49662.84;;;-149.77;53.39
60055;BME280;45930;53.514;55.904;2023-01-31T01:29:55;49635.09;;;-149.77;53.85
60055;BME280;45930;53.514;55.904;2023-01-31T01:30:56;49643.03;;;-149.77;53.80
60055;BME280;45930;53.514;55.904;2023-01-31T01:31:56;49639.06;;;-149.77;53.50
60055;BME280;45930;53.514;55.904;2023-01-31T01:32:57;49615.28;;;-149.77;53.54
60055;BME280;45930;53.514;55.904;2023-01-31T01:34:11;49629.16;;;-149.77;53.58
60055;BME280;45930;53.514;55.904;2023-01-31T01:35:12;49635.09;;;-149.77;53.47
60055;BME280;45930;53.514;55.904;2023-01-31T01:36:14;49621.25;;;-149.77;53.12
60055;BME280;45930;53.514;55.904;2023-01-31T01:37:16;49662.84;;;-149.77;53.50
60055;BME280;45930;53.514;55.904;2023-01-31T01:38:20;49633.13;;;-149.77;53.50
60055;BME280;45930;53.514;55.904;2023-01-31T01:39:20;49647.00;;;-149.77;53.26
60055;BME280;45930;53.514;55.904;2023-01-31T01:40:21;49627.19;;;-149.77;53.35
60055;BME280;45930;53.514;55.904;2023-01-31T01:41:23;49637.09;;;-149.77;53.18
60055;BME280;45930;53.514;55.904;2023-01-31T01:42:25;49641.06;;;-149.77;53.27
60055;BME280;45930;53.514;55.904;2023-01-31T01:44:59;49625.19;;;-149.77;52.84
60055;BME280;45930;53.514;55.904;2023-01-31T01:46:00;49635.09;;;-149.77;53.05
60055;BME280;45930;53.514;55.904;2023-01-31T01:47:01;49645.00;;;-149.77;53.17
60055;BME280;45930;53.514;55.904;2023-01-31T01:48:06;49641.06;;;-149.77;53.02
60055;BME280;45930;53.514;55.904;2023-01-31T01:49:33;49633.13;;;-149.77;53.29
60055;BME280;45930;53.514;55.904;2023-01-31T01:50:38;49635.09;;;-149.77;52.89
60055;BME280;45930;53.514;55.904;2023-01-31T01:51:41;49652.94;;;-149.77;53.02
60055;BME280;45930;53.514;55.904;2023-01-31T01:52:50;49652.94;;;-149.77;53.23
60055;BME280;45930;53.514;55.904;2023-01-31T01:53:55;49623.22;;;-149.77;53.40
60055;BME280;45930;53.514;55.904;2023-01-31T01:55:02;49627.19;;;-149.77;53.21
60055;BME280;45930;53.514;55.904;2023-01-31T01:56:10;49645.00;;;-149.77;53.38
60055;BME280;45930;53.514;55.904;2023-01-31T01:57:19;49641.06;;;-149.77;53.13
60055;BME280;45930;53.514;55.904;2023-01-31T01:58:35;49647.00;;;-149.77;53.50
60055;BME280;45930;53.514;55.904;2023-01-31T01:59:41;49643.03;;;-149.77;53.73
60055;BME280;45930;53.514;55.904;2023-01-31T02:00:44;49615.28;;;-149.77;53.34
60055;BME280;45930;53.514;55.904;2023-01-31T02:01:46;49639.06;;;-149.77;53.30
60055;BME280;45930;53.514;55.904;2023-01-31T02:02:49;49656.91;;;-149.77;53.21
60055;BME280;45930;53.514;55.904;2023-01-31T02:03:52;49668.78;;;-149.77;53.50
60055;BME280;45930;53.514;55.904;2023-01-31T02:04:52;49650.94;;;-149.77;53.54
60055;BME280;45930;53.514;55.904;2023-01-31T02:06:04;49643.03;;;-149.77;53.44
60055;BME280;45930;53.514;55.904;2023-01-31T02:07:06;49670.75;;;-149.77;53.49
60055;BME280;45930;53.514;55.904;2023-01-31T02:08:08;49676.72;;;-149.77;53.64
60055;BME280;45930;53.514;55.904;2023-01-31T02:09:18;49643.03;;;-149.77;53.64
60055;BME280;45930;53.514;55.904;2023-01-31T02:10:32;49652.94;;;-149.77;53.56
60055;BME280;45930;53.514;55.904;2023-01-31T02:11:39;49648.97;;;-149.77;53.74
60055;BME280;45930;53.514;55.904;2023-01-31T02:12:40;49647.00;;;-149.77;53.72
60055;BME280;45930;53.514;55.904;2023-01-31T02:13:42;49652.94;;;-149.77;53.99
60055;BME280;45930;53.514;55.904;2023-01-31T02:14:46;49666.81;;;-149.77;53.66
60055;BME280;45930;53.514;55.904;2023-01-31T02:16:07;49656.91;;;-149.77;53.69
60055;BME280;45930;53.514;55.904;2023-01-31T02:17:17;49648.97;;;-149.77;53.76
60055;BME280;45930;53.514;55.904;2023-01-31T02:18:19;49658.88;;;-149.77;53.42
60055;BME280;45930;53.514;55.904;2023-01-31T02:19:34;49635.09;;;-149.77;53.34
60055;BME280;45930;53.514;55.904;2023-01-31T02:26:17;49668.78;;;-149.77;53.94
60055;BME280;45930;53.514;55.904;2023-01-31T02:27:33;49623.22;;;-149.77;53.78
60055;BME280;45930;53.514;55.904;2023-01-31T02:29:00;49647.00;;;-149.77;53.64
60055;BME280;45930;53.514;55.904;2023-01-31T02:33:07;49650.94;;;-149.77;54.05
60055;BME280;45930;53.514;55.904;2023-01-31T02:39:28;49650.94;;;-149.77;54.66
60055;BME280;45930;53.514;55.904;2023-01-31T02:43:21;49654.91;;;-149.77;54.71
60055;BME280;45930;53.514;55.904;2023-01-31T02:44:33;49647.00;;;-149.77;55.01
60055;BME280;45930;53.514;55.904;2023-01-31T02:46:01;49654.91;;;-149.77;54.62
60055;BME280;45930;53.514;55.904;2023-01-31T02:48:41;49662.84;;;-149.77;54.80
60055;BME280;45930;53.514;55.904;2023-01-31T02:50:17;49643.03;;;-149.77;54.26
60055;BME280;45930;53.514;55.904;2023-01-31T02:51:24;49666.81;;;-149.77;55.27
60055;BME280;45930;53.514;55.904;2023-01-31T02:53:07;49658.88;;;-149.77;54.86
60055;BME280;45930;53.514;55.904;2023-01-31T02:54:15;49670.75;;;-149.77;54.48
60055;BME280;45930;53.514;55.904;2023-01-31T02:55:28;49662.84;;;-149.77;54.70
60055;BME280;45930;53.514;55.904;2023-01-31T02:56:49;49666.81;;;-149.77;54.79
60055;BME280;45930;53.514;55.904;2023-01-31T02:57:52;49666.81;;;-149.77;54.71
60055;BME280;45930;53.514;55.904;2023-01-31T03:00:36;49652.94;;;-149.77;54.66
60055;BME280;45930;53.514;55.904;2023-01-31T03:01:45;49668.78;;;-149.77;54.87
60055;BME280;45930;53.514;55.904;2023-01-31T03:02:49;49678.69;;;-149.77;54.60
60055;BME280;45930;53.514;55.904;2023-01-31T03:03:51;49678.69;;;-149.77;54.71
60055;BME280;45930;53.514;55.904;2023-01-31T03:04:52;49648.97;;;-149.77;54.87
60055;BME280;45930;53.514;55.904;2023-01-31T03:07:28;49670.75;;;-149.77;54.78
60055;BME280;45930;53.514;55.904;2023-01-31T03:08:32;49658.88;;;-149.77;54.58
60055;BME280;45930;53.514;55.904;2023-01-31T03:15:43;49647.00;;;-149.77;54.59
60055;BME280;45930;53.514;55.904;2023-01-31T03:17:14;49696.53;;;-149.77;54.36
60055;BME280;45930;53.514;55.904;2023-01-31T03:19:20;49668.78;;;-149.77;54.55
60055;BME280;45930;53.514;55.904;2023-01-31T03:21:15;49635.09;;;-149.77;54.40
60055;BME280;45930;53.514;55.904;2023-01-31T03:22:24;49647.00;;;-149.77;55.06
60055;BME280;45930;53.514;55.904;2023-01-31T03:23:28;49678.69;;;-149.77;54.86
60055;BME280;45930;53.514;55.904;2023-01-31T03:24:32;49660.84;;;-149.77;54.69
60055;BME280;45930;53.514;55.904;2023-01-31T03:25:34;49654.91;;;-149.77;54.62
60055;BME280;45930;53.514;55.904;2023-01-31T03:26:37;49676.72;;;-149.77;54.47
60055;BME280;45930;53.514;55.904;2023-01-31T03:27:39;49631.16;;;-149.77;54.96
60055;BME280;45930;53.514;55.904;2023-01-31T03:28:43;49658.88;;;-149.77;54.92
60055;BME280;45930;53.514;55.904;2023-01-31T03:29:43;49652.94;;;-149.77;54.93
60055;BME280;45930;53.514;55.904;2023-01-31T03:30:51;49660.84;;;-149.77;55.21
60055;BME280;45930;53.514;55.904;2023-01-31T03:32:21;49660.84;;;-149.77;55.38
60055;BME280;45930;53.514;55.904;2023-01-31T03:33:34;49670.75;;;-149.77;55.16
60055;BME280;45930;53.514;55.904;2023-01-31T03:34:36;49684.63;;;-149.77;55.08
60055;BME280;45930;53.514;55.904;2023-01-31T03:35:38;49680.66;;;-149.77;55.13
60055;BME280;45930;53.514;55.904;2023-01-31T03:38:18;49660.84;;;-149.77;55.36
60055;BME280;45930;53.514;55.904;2023-01-31T03:41:04;49641.06;;;-149.77;54.88
60055;BME280;45930;53.514;55.904;2023-01-31T03:42:07;49678.69;;;-149.77;54.67
60055;BME280;45930;53.514;55.904;2023-01-31T03:43:18;49647.00;;;-149.77;54.66
60055;BME280;45930;53.514;55.904;2023-01-31T03:45:40;49658.88;;;-149.77;54.42
60055;BME280;45930;53.514;55.904;2023-01-31T03:46:59;49643.03;;;-149.77;54.74
60055;BME280;45930;53.514;55.904;2023-01-31T03:48:03;49648.97;;;-149.77;54.76
60055;BME280;45930;53.514;55.904;2023-01-31T03:49:12;49664.81;;;-149.77;54.76
60055;BME280;45930;53.514;55.904;2023-01-31T03:50:27;49645.00;;;-149.77;54.82
60055;BME280;45930;53.514;55.904;2023-01-31T03:51:31;49650.94;;;-149.77;54.56
60055;BME280;45930;53.514;55.904;2023-01-31T03:52:37;49706.41;;;-149.77;54.46
60055;BME280;45930;53.514;55.904;2023-01-31T03:53:43;49647.00;;;-149.77;54.54
60055;BME280;45930;53.514;55.904;2023-01-31T03:54:50;49645.00;;;-149.77;54.62
60055;BME280;45930;53.514;55.904;2023-01-31T03:56:36;49676.72;;;-149.77;54.51
60055;BME280;45930;53.514;55.904;2023-01-31T03:57:41;49668.78;;;-149.77;54.18
60055;BME280;45930;53.514;55.904;2023-01-31T03:58:48;49658.88;;;-149.77;54.23
60055;BME280;45930;53.514;55.904;2023-01-31T03:59:53;49637.09;;;-149.77;54.29
60055;BME280;45930;53.514;55.904;2023-01-31T04:00:56;49658.88;;;-149.77;54.11
60055;BME280;45930;53.514;55.904;2023-01-31T04:02:00;49639.06;;;-149.77;53.94
60055;BME280;45930;53.514;55.904;2023-01-31T04:03:11;49668.78;;;-149.77;53.72
60055;BME280;45930;53.514;55.904;2023-01-31T04:04:25;49652.94;;;-149.77;53.63
60055;BME280;45930;53.514;55.904;2023-01-31T04:05:27;49670.75;;;-149.77;53.72
60055;BME280;45930;53.514;55.904;2023-01-31T04:06:31;49631.16;;;-149.77;53.48
60055;BME280;45930;53.514;55.904;2023-01-31T04:07:33;49654.91;;;-149.77;53.59
60055;BME280;45930;53.514;55.904;2023-01-31T04:08:35;49658.88;;;-149.77;53.74
60055;BME280;45930;53.514;55.904;2023-01-31T04:09:37;49676.72;;;-149.77;53.75
60055;BME280;45930;53.514;55.904;2023-01-31T04:10:38;49662.84;;;-149.77;53.69
60055;BME280;45930;53.514;55.904;2023-01-31T04:11:40;49652.94;;;-149.77;53.74
60055;BME280;45930;53.514;55.904;2023-01-31T04:12:41;49639.06;;;-149.77;53.59
60055;BME280;45930;53.514;55.904;2023-01-31T04:13:42;49650.94;;;-149.77;53.49
60055;BME280;45930;53.514;55.904;2023-01-31T04:14:43;49660.84;;;-149.77;53.32
60055;BME280;45930;53.514;55.904;2023-01-31T04:15:44;49658.88;;;-149.77;53.13
60055;BME280;45930;53.514;55.904;2023-01-31T04:16:45;49652.94;;;-149.77;53.36
60055;BME280;45930;53.514;55.904;2023-01-31T04:17:46;49668.78;;;-149.77;53.01
60055;BME280;45930;53.514;55.904;2023-01-31T04:18:49;49639.06;;;-149.77;52.89
60055;BME280;45930;53.514;55.904;2023-01-31T04:19:51;49662.84;;;-149.77;52.74
60055;BME280;45930;53.514;55.904;2023-01-31T04:20:54;49623.22;;;-149.77;52.60
60055;BME280;45930;53.514;55.904;2023-01-31T04:21:56;49637.09;;;-149.77;52.55
60055;BME280;45930;53.514;55.904;2023-01-31T04:22:56;49680.66;;;-149.77;52.67
60055;BME280;45930;53.514;55.904;2023-01-31T04:23:59;49668.78;;;-149.77;52.54
60055;BME280;45930;53.514;55.904;2023-01-31T04:25:00;49647.00;;;-149.77;52.52
60055;BME280;45930;53.514;55.904;2023-01-31T04:26:01;49650.94;;;-149.77;52.31
60055;BME280;45930;53.514;55.904;2023-01-31T04:27:02;49660.84;;;-149.77;52.18
60055;BME280;45930;53.514;55.904;2023-01-31T04:28:03;49654.91;;;-149.77;52.08
60055;BME280;45930;53.514;55.904;2023-01-31T04:29:04;49658.88;;;-149.77;52.39
60055;BME280;45930;53.514;55.904;2023-01-31T04:30:05;49647.00;;;-149.77;52.53
60055;BME280;45930;53.514;55.904;2023-01-31T04:31:07;49658.88;;;-149.77;52.28
60055;BME280;45930;53.514;55.904;2023-01-31T04:32:07;49641.06;;;-149.77;52.46
60055;BME280;45930;53.514;55.904;2023-01-31T04:33:08;49643.03;;;-149.77;52.48
60055;BME280;45930;53.514;55.904;2023-01-31T04:34:09;49660.84;;;-149.77;52.85
60055;BME280;45930;53.514;55.904;2023-01-31T04:35:10;49635.09;;;-149.77;52.41
60055;BME280;45930;53.514;55.904;2023-01-31T04:36:11;49643.03;;;-149.77;52.60
60055;BME280;45930;53.514;55.904;2023-01-31T04:37:12;49643.03;;;-149.77;52.70
60055;BME280;45930;53.514;55.904;2023-01-31T04:38:13;49639.06;;;-149.77;52.65
60055;BME280;45930;53.514;55.904;2023-01-31T04:39:13;49633.13;;;-149.77;52.77
60055;BME280;45930;53.514;55.904;2023-01-31T04:40:15;49645.00;;;-149.77;52.77
60055;BME280;45930;53.514;55.904;2023-01-31T04:41:16;49643.03;;;-149.77;52.98
60055;BME280;45930;53.514;55.904;2023-01-31T04:42:16;49647.00;;;-149.77;52.65
60055;BME280;45930;53.514;55.904;2023-01-31T04:43:17;49627.19;;;-149.77;52.79
60055;BME280;45930;53.514;55.904;2023-01-31T04:44:18;49637.09;;;-149.77;52.35
60055;BME280;45930;53.514;55.904;2023-01-31T04:45:19;49631.16;;;-149.77;52.49
60055;BME280;45930;53.514;55.904;2023-01-31T04:46:20;49650.94;;;-149.77;52.50
60055;BME280;45930;53.514;55.904;2023-01-31T04:47:21;49633.13;;;-149.77;52.60
60055;BME280;45930;53.514;55.904;2023-01-31T04:48:22;49641.06;;;-149.77;52.40
60055;BME280;45930;53.514;55.904;2023-01-31T04:49:22;49615.28;;;-149.77;52.27
60055;BME280;45930;53.514;55.904;2023-01-31T04:50:23;49623.22;;;-149.77;52.19
60055;BME280;45930;53.514;55.904;2023-01-31T04:51:24;49611.34;;;-149.77;52.12
60055;BME280;45930;53.514;55.904;2023-01-31T04:52:25;49621.25;;;-149.77;51.75
60055;BME280;45930;53.514;55.904;2023-01-31T04:53:26;49625.19;;;-149.77;52.15
60055;BME280;45930;53.514;55.904;2023-01-31T04:54:26;49639.06;;;-149.77;51.95
60055;BME280;45930;53.514;55.904;2023-01-31T04:55:27;49607.38;;;-149.77;51.72
60055;BME280;45930;53.514;55.904;2023-01-31T04:56:28;49593.50;;;-149.77;51.55
60055;BME280;45930;53.514;55.904;2023-01-31T04:57:29;49607.38;;;-149.77;51.56
60055;BME280;45930;53.514;55.904;2023-01-31T04:58:30;49615.28;;;-149.77;51.47
60055;BME280;45930;53.514;55.904;2023-01-31T04:59:31;49583.59;;;-149.77;51.36
60055;BME280;45930;53.514;55.904;2023-01-31T05:00:31;49631.16;;;-149.77;51.19
60055;BME280;45930;53.514;55.904;2023-01-31T05:01:32;49605.38;;;-149.77;51.05
60055;BME280;45930;53.514;55.904;2023-01-31T05:02:41;49637.09;;;-149.77;51.04
60055;BME280;45930;53.514;55.904;2023-01-31T05:03:42;49631.16;;;-149.77;50.70
60055;BME280;45930;53.514;55.904;2023-01-31T05:04:43;49627.19;;;-149.77;50.68
60055;BME280;45930;53.514;55.904;2023-01-31T05:05:43;49635.09;;;-149.77;50.52
60055;BME280;45930;53.514;55.904;2023-01-31T05:06:47;49597.47;;;-149.77;50.86
60055;BME280;45930;53.514;55.904;2023-01-31T05:07:48;49603.41;;;-149.77;50.31
60055;BME280;45930;53.514;55.904;2023-01-31T05:08:49;49617.28;;;-149.77;49.98
60055;BME280;45930;53.514;55.904;2023-01-31T05:09:52;49613.31;;;-149.77;49.93
60055;BME280;45930;53.514;55.904;2023-01-31T05:10:58;49591.53;;;-149.77;49.74
60055;BME280;45930;53.514;55.904;2023-01-31T05:12:00;49593.50;;;-149.77;49.46
60055;BME280;45930;53.514;55.904;2023-01-31T05:13:01;49613.31;;;-149.77;49.15
60055;BME280;45930;53.514;55.904;2023-01-31T05:14:01;49589.53;;;-149.77;49.16
60055;BME280;45930;53.514;55.904;2023-01-31T05:15:03;49577.66;;;-149.77;49.52
60055;BME280;45930;53.514;55.904;2023-01-31T05:16:08;49605.38;;;-149.77;49.16
60055;BME280;45930;53.514;55.904;2023-01-31T05:17:10;49603.41;;;-149.77;49.25
60055;BME280;45930;53.514;55.904;2023-01-31T05:18:20;49625.19;;;-149.77;48.59
60055;BME280;45930;53.514;55.904;2023-01-31T05:19:24;49585.59;;;-149.77;48.71
60055;BME280;45930;53.514;55.904;2023-01-31T05:20:25;49601.44;;;-149.77;48.72
60055;BME280;45930;53.514;55.904;2023-01-31T05:21:26;49595.50;;;-149.77;48.59
60055;BME280;45930;53.514;55.904;2023-01-31T05:22:27;49615.28;;;-149.77;48.46
60055;BME280;45930;53.514;55.904;2023-01-31T05:23:29;49591.53;;;-149.77;48.51
60055;BME280;45930;53.514;55.904;2023-01-31T05:24:32;49611.34;;;-149.77;48.34
60055;BME280;45930;53.514;55.904;2023-01-31T05:25:34;49597.47;;;-149.77;48.41
60055;BME280;45930;53.514;55.904;2023-01-31T05:26:35;49607.38;;;-149.77;48.54
60055;BME280;45930;53.514;55.904;2023-01-31T05:27:36;49585.59;;;-149.77;48.36
60055;BME280;45930;53.514;55.904;2023-01-31T05:28:37;49538.03;;;-149.77;48.50
60055;BME280;45930;53.514;55.904;2023-01-31T05:29:38;49609.34;;;-149.77;48.16
60055;BME280;45930;53.514;55.904;2023-01-31T05:30:39;49583.59;;;-149.77;47.91
60055;BME280;45930;53.514;55.904;2023-01-31T05:31:41;49563.78;;;-149.77;47.76
60055;BME280;45930;53.514;55.904;2023-01-31T05:32:43;49611.34;;;-149.77;47.87
60055;BME280;45930;53.514;55.904;2023-01-31T05:33:45;49563.78;;;-149.77;48.19
60055;BME280;45930;53.514;55.904;2023-01-31T05:34:46;49563.78;;;-149.77;47.81
60055;BME280;45930;53.514;55.904;2023-01-31T05:35:47;49583.59;;;-149.77;47.48
60055;BME280;45930;53.514;55.904;2023-01-31T05:36:48;49565.78;;;-149.77;47.74
60055;BME280;45930;53.514;55.904;2023-01-31T05:37:49;49571.72;;;-149.77;47.96
60055;BME280;45930;53.514;55.904;2023-01-31T05:38:55;49573.69;;;-149.77;47.71
60055;BME280;45930;53.514;55.904;2023-01-31T05:39:57;49573.69;;;-149.77;48.12
60055;BME280;45930;53.514;55.904;2023-01-31T05:41:08;49601.44;;;-149.77;47.89
60055;BME280;45930;53.514;55.904;2023-01-31T05:42:10;49585.59;;;-149.77;47.69
60055;BME280;45930;53.514;55.904;2023-01-31T05:43:11;49599.44;;;-149.77;47.75
60055;BME280;45930;53.514;55.904;2023-01-31T05:44:14;49555.88;;;-149.77;47.36
60055;BME280;45930;53.514;55.904;2023-01-31T05:45:15;49569.72;;;-149.77;47.16
60055;BME280;45930;53.514;55.904;2023-01-31T05:46:19;49549.94;;;-149.77;47.29
60055;BME280;45930;53.514;55.904;2023-01-31T05:47:20;49559.81;;;-149.77;47.16
60055;BME280;45930;53.514;55.904;2023-01-31T05:48:36;49534.06;;;-149.77;47.25
60055;BME280;45930;53.514;55.904;2023-01-31T05:49:57;49597.47;;;-149.77;47.22
60055;BME280;45930;53.514;55.904;2023-01-31T05:51:05;49549.94;;;-149.77;47.06
60055;BME280;45930;53.514;55.904;2023-01-31T05:52:06;49601.44;;;-149.77;47.39
60055;BME280;45930;53.514;55.904;2023-01-31T05:53:09;49571.72;;;-149.77;46.43
60055;BME280;45930;53.514;55.904;2023-01-31T05:54:11;49555.88;;;-149.77;46.76
60055;BME280;45930;53.514;55.904;2023-01-31T05:55:15;49579.63;;;-149.77;46.57
60055;BME280;45930;53.514;55.904;2023-01-31T05:56:16;49543.97;;;-149.77;46.54
60055;BME280;45930;53.514;55.904;2023-01-31T05:57:17;49567.75;;;-149.77;46.59
60055;BME280;45930;53.514;55.904;2023-01-31T05:58:18;49599.44;;;-149.77;46.56
60055;BME280;45930;53.514;55.904;2023-01-31T05:59:18;49579.63;;;-149.77;46.46
60055;BME280;45930;53.514;55.904;2023-01-31T06:00:20;49543.97;;;-149.77;46.47
60055;BME280;45930;53.514;55.904;2023-01-31T06:01:27;49593.50;;;-149.77;46.60